sensor_id;sensor_type;location;lat;lon;timestamp;P1;durP1;ratioP1;P2;durP2;ratioP2
7539;SDS011;3811;49.006;12.076;2022-10-31T00:00:16;7.90;;;7.03;;
7539;SDS011;3811;49.006;12.076;2022-10-31T00:02:43;11.53;;;7.40;;
7539;SDS011;3811;49.006;12.076;2022-10-31T00:05:10;10.03;;;7.30;;
7539;SDS011;3811;49.006;12.076;2022-10-31T00:07:38;9.37;;;8.07;;
7539;SDS011;3811;49.006;12.076;2022-10-31T00:10:05;10.60;;;6.97;;
7539;SDS011;3811;49.006;12.076;2022-10-31T00:12:35;10.43;;;7.40;;
7539;SDS011;3811;49.006;12.076;2022-10-31T00:15:02;11.67;;;7.80;;
7539;SDS011;3811;49.006;12.076;2022-10-31T00:17:30;10.67;;;7.90;;
7539;SDS011;3811;49.006;12.076;2022-10-31T00:19:57;9.53;;;7.30;;
7539;SDS011;3811;49.006;12.076;2022-10-31T00:22:24;12.30;;;7.70;;
7539;SDS011;3811;49.006;12.076;2022-10-31T00:24:51;9.70;;;7.27;;
7539;SDS011;3811;49.006;12.076;2022-10-31T00:27:18;11.97;;;7.37;;
7539;SDS011;3811;49.006;12.076;2022-10-31T00:29:47;7.53;;;6.70;;
7539;SDS011;3811;49.006;12.076;2022-10-31T00:32:14;11.53;;;8.07;;
7539;SDS011;3811;49.006;12.076;2022-10-31T00:34:41;12.37;;;7.17;;
7539;SDS011;3811;49.006;12.076;2022-10-31T00:37:08;9.37;;;7.00;;
7539;SDS011;3811;49.006;12.076;2022-10-31T00:39:36;9.13;;;6.80;;
7539;SDS011;3811;49.006;12.076;2022-10-31T00:42:03;12.37;;;7.07;;
7539;SDS011;3811;49.006;12.076;2022-10-31T00:44:30;12.67;;;7.83;;
7539;SDS011;3811;49.006;12.076;2022-10-31T00:47:01;10.13;;;7.13;;
7539;SDS011;3811;49.006;12.076;2022-10-31T00:49:28;14.40;;;7.60;;
7539;SDS011;3811;49.006;12.076;2022-10-31T00:51:55;13.27;;;7.27;;
7539;SDS011;3811;49.006;12.076;2022-10-31T00:54:22;6.93;;;6.23;;
7539;SDS011;3811;49.006;12.076;2022-10-31T00:56:49;8.97;;;6.60;;
7539;SDS011;3811;49.006;12.076;2022-10-31T00:59:16;8.63;;;6.27;;
7539;SDS011;3811;49.006;12.076;2022-10-31T01:01:43;9.37;;;6.37;;
7539;SDS011;3811;49.006;12.076;2022-10-31T01:04:13;11.47;;;5.80;;
7539;SDS011;3811;49.006;12.076;2022-10-31T01:06:40;11.20;;;7.00;;
7539;SDS011;3811;49.006;12.076;2022-10-31T01:09:07;10.50;;;6.40;;
7539;SDS011;3811;49.006;12.076;2022-10-31T01:11:34;7.47;;;6.47;;
7539;SDS011;3811;49.006;12.076;2022-10-31T01:14:04;13.23;;;6.73;;
7539;SDS011;3811;49.006;12.076;2022-10-31T01:16:32;9.37;;;6.00;;
7539;SDS011;3811;49.006;12.076;2022-10-31T01:18:59;8.97;;;6.07;;
7539;SDS011;3811;49.006;12.076;2022-10-31T01:21:28;8.20;;;6.20;;
7539;SDS011;3811;49.006;12.076;2022-10-31T01:23:57;6.87;;;6.10;;
7539;SDS011;3811;49.006;12.076;2022-10-31T01:26:25;8.53;;;6.80;;
7539;SDS011;3811;49.006;12.076;2022-10-31T01:28:55;6.93;;;6.23;;
7539;SDS011;3811;49.006;12.076;2022-10-31T01:31:23;7.73;;;5.73;;
7539;SDS011;3811;49.006;12.076;2022-10-31T01:33:54;8.00;;;6.53;;
7539;SDS011;3811;49.006;12.076;2022-10-31T01:36:22;9.13;;;6.67;;
7539;SDS011;3811;49.006;12.076;2022-10-31T01:38:53;9.43;;;5.87;;
7539;SDS011;3811;49.006;12.076;2022-10-31T01:41:23;6.87;;;6.20;;
7539;SDS011;3811;49.006;12.076;2022-10-31T01:43:53;10.67;;;6.03;;
7539;SDS011;3811;49.006;12.076;2022-10-31T01:46:22;6.67;;;6.00;;
7539;SDS011;3811;49.006;12.076;2022-10-31T01:48:52;8.80;;;5.77;;
7539;SDS011;3811;49.006;12.076;2022-10-31T01:51:21;7.40;;;6.07;;
7539;SDS011;3811;49.006;12.076;2022-10-31T01:53:54;8.40;;;6.30;;
7539;SDS011;3811;49.006;12.076;2022-10-31T01:56:24;7.30;;;6.00;;
7539;SDS011;3811;49.006;12.076;2022-10-31T01:58:51;7.97;;;6.20;;
7539;SDS011;3811;49.006;12.076;2022-10-31T02:01:21;9.47;;;6.13;;
7539;SDS011;3811;49.006;12.076;2022-10-31T02:03:48;9.23;;;6.70;;
7539;SDS011;3811;49.006;12.076;2022-10-31T02:06:19;6.23;;;5.63;;
7539;SDS011;3811;49.006;12.076;2022-10-31T02:08:55;9.93;;;6.20;;
7539;SDS011;3811;49.006;12.076;2022-10-31T02:13:54;10.47;;;6.17;;
7539;SDS011;3811;49.006;12.076;2022-10-31T02:16:22;8.83;;;6.33;;
7539;SDS011;3811;49.006;12.076;2022-10-31T02:18:49;8.80;;;6.17;;
7539;SDS011;3811;49.006;12.076;2022-10-31T02:21:17;9.30;;;6.17;;
7539;SDS011;3811;49.006;12.076;2022-10-31T02:27:02;6.97;;;6.27;;
7539;SDS011;3811;49.006;12.076;2022-10-31T02:29:45;6.60;;;5.93;;
7539;SDS011;3811;49.006;12.076;2022-10-31T02:35:38;8.87;;;6.30;;
7539;SDS011;3811;49.006;12.076;2022-10-31T02:38:14;7.57;;;5.70;;
7539;SDS011;3811;49.006;12.076;2022-10-31T02:40:56;6.80;;;6.07;;
7539;SDS011;3811;49.006;12.076;2022-10-31T02:43:34;8.60;;;6.57;;
7539;SDS011;3811;49.006;12.076;2022-10-31T02:46:08;7.47;;;6.00;;
7539;SDS011;3811;49.006;12.076;2022-10-31T02:48:41;7.60;;;6.20;;
7539;SDS011;3811;49.006;12.076;2022-10-31T02:51:11;9.93;;;6.33;;
7539;SDS011;3811;49.006;12.076;2022-10-31T02:53:39;6.60;;;6.00;;
7539;SDS011;3811;49.006;12.076;2022-10-31T02:56:11;6.57;;;5.97;;
7539;SDS011;3811;49.006;12.076;2022-10-31T02:58:40;8.63;;;6.90;;
7539;SDS011;3811;49.006;12.076;2022-10-31T03:01:22;8.83;;;6.93;;
7539;SDS011;3811;49.006;12.076;2022-10-31T03:04:05;11.23;;;7.30;;
7539;SDS011;3811;49.006;12.076;2022-10-31T03:06:54;10.67;;;6.73;;
7539;SDS011;3811;49.006;12.076;2022-10-31T03:09:32;11.33;;;6.47;;
7539;SDS011;3811;49.006;12.076;2022-10-31T03:12:07;17.13;;;7.60;;
7539;SDS011;3811;49.006;12.076;2022-10-31T03:14:39;18.80;;;7.17;;
7539;SDS011;3811;49.006;12.076;2022-10-31T03:17:11;16.70;;;7.43;;
7539;SDS011;3811;49.006;12.076;2022-10-31T03:19:43;12.57;;;6.87;;
7539;SDS011;3811;49.006;12.076;2022-10-31T03:22:15;11.67;;;7.57;;
7539;SDS011;3811;49.006;12.076;2022-10-31T03:24:45;21.17;;;7.33;;
7539;SDS011;3811;49.006;12.076;2022-10-31T03:27:14;11.40;;;7.63;;
7539;SDS011;3811;49.006;12.076;2022-10-31T03:29:45;11.57;;;8.07;;
7539;SDS011;3811;49.006;12.076;2022-10-31T03:32:15;16.30;;;7.47;;
7539;SDS011;3811;49.006;12.076;2022-10-31T03:34:48;15.47;;;7.27;;
7539;SDS011;3811;49.006;12.076;2022-10-31T03:37:20;11.60;;;6.53;;
7539;SDS011;3811;49.006;12.076;2022-10-31T03:39:47;9.97;;;6.97;;
7539;SDS011;3811;49.006;12.076;2022-10-31T03:42:22;13.47;;;7.77;;
7539;SDS011;3811;49.006;12.076;2022-10-31T03:44:51;14.97;;;8.17;;
7539;SDS011;3811;49.006;12.076;2022-10-31T03:47:22;15.83;;;7.50;;
7539;SDS011;3811;49.006;12.076;2022-10-31T03:49:50;14.60;;;8.27;;
7539;SDS011;3811;49.006;12.076;2022-10-31T03:52:19;9.63;;;7.10;;
7539;SDS011;3811;49.006;12.076;2022-10-31T03:54:52;15.90;;;7.77;;
7539;SDS011;3811;49.006;12.076;2022-10-31T03:57:23;14.57;;;8.20;;
7539;SDS011;3811;49.006;12.076;2022-10-31T03:59:56;10.07;;;8.37;;
7539;SDS011;3811;49.006;12.076;2022-10-31T04:02:29;10.27;;;7.30;;
7539;SDS011;3811;49.006;12.076;2022-10-31T04:05:01;22.23;;;9.70;;
7539;SDS011;3811;49.006;12.076;2022-10-31T04:07:31;13.00;;;7.63;;
7539;SDS011;3811;49.006;12.076;2022-10-31T04:10:07;10.93;;;7.67;;
7539;SDS011;3811;49.006;12.076;2022-10-31T04:12:36;17.10;;;6.77;;
7539;SDS011;3811;49.006;12.076;2022-10-31T04:15:28;24.70;;;8.33;;
7539;SDS011;3811;49.006;12.076;2022-10-31T04:17:56;14.50;;;7.83;;
7539;SDS011;3811;49.006;12.076;2022-10-31T04:20:34;30.53;;;7.87;;
7539;SDS011;3811;49.006;12.076;2022-10-31T04:23:04;18.47;;;8.37;;
7539;SDS011;3811;49.006;12.076;2022-10-31T04:25:37;25.50;;;7.97;;
7539;SDS011;3811;49.006;12.076;2022-10-31T04:28:04;21.80;;;8.37;;
7539;SDS011;3811;49.006;12.076;2022-10-31T04:30:32;23.67;;;8.23;;
7539;SDS011;3811;49.006;12.076;2022-10-31T04:33:00;31.00;;;8.43;;
7539;SDS011;3811;49.006;12.076;2022-10-31T04:35:27;23.67;;;8.73;;
7539;SDS011;3811;49.006;12.076;2022-10-31T04:37:56;24.73;;;8.10;;
7539;SDS011;3811;49.006;12.076;2022-10-31T04:40:23;15.63;;;8.00;;
7539;SDS011;3811;49.006;12.076;2022-10-31T04:43:19;15.60;;;6.67;;
7539;SDS011;3811;49.006;12.076;2022-10-31T04:45:46;18.73;;;7.53;;
7539;SDS011;3811;49.006;12.076;2022-10-31T04:48:13;19.53;;;8.00;;
7539;SDS011;3811;49.006;12.076;2022-10-31T04:50:43;26.53;;;7.80;;
7539;SDS011;3811;49.006;12.076;2022-10-31T04:53:13;23.63;;;8.43;;
7539;SDS011;3811;49.006;12.076;2022-10-31T04:56:00;11.17;;;7.07;;
7539;SDS011;3811;49.006;12.076;2022-10-31T04:58:36;28.80;;;7.53;;
7539;SDS011;3811;49.006;12.076;2022-10-31T05:01:07;12.90;;;6.63;;
7539;SDS011;3811;49.006;12.076;2022-10-31T05:03:34;12.57;;;7.37;;
7539;SDS011;3811;49.006;12.076;2022-10-31T05:06:01;41.37;;;8.53;;
7539;SDS011;3811;49.006;12.076;2022-10-31T05:08:30;13.17;;;6.80;;
7539;SDS011;3811;49.006;12.076;2022-10-31T05:10:59;76.77;;;10.73;;
7539;SDS011;3811;49.006;12.076;2022-10-31T05:13:26;12.90;;;6.17;;
7539;SDS011;3811;49.006;12.076;2022-10-31T05:16:05;10.27;;;5.97;;
7539;SDS011;3811;49.006;12.076;2022-10-31T05:19:05;14.93;;;6.00;;
7539;SDS011;3811;49.006;12.076;2022-10-31T05:21:50;22.47;;;6.20;;
7539;SDS011;3811;49.006;12.076;2022-10-31T05:24:20;16.17;;;5.63;;
7539;SDS011;3811;49.006;12.076;2022-10-31T05:26:48;9.73;;;5.20;;
7539;SDS011;3811;49.006;12.076;2022-10-31T05:29:16;58.30;;;9.33;;
7539;SDS011;3811;49.006;12.076;2022-10-31T05:31:43;84.00;;;9.90;;
7539;SDS011;3811;49.006;12.076;2022-10-31T05:34:25;46.03;;;7.53;;
7539;SDS011;3811;49.006;12.076;2022-10-31T05:37:12;9.57;;;5.60;;
7539;SDS011;3811;49.006;12.076;2022-10-31T05:39:42;78.40;;;10.87;;
7539;SDS011;3811;49.006;12.076;2022-10-31T05:42:13;14.93;;;7.17;;
7539;SDS011;3811;49.006;12.076;2022-10-31T05:44:40;26.93;;;6.70;;
7539;SDS011;3811;49.006;12.076;2022-10-31T05:47:07;98.60;;;12.17;;
7539;SDS011;3811;49.006;12.076;2022-10-31T05:49:53;38.10;;;7.90;;
7539;SDS011;3811;49.006;12.076;2022-10-31T05:52:39;56.60;;;8.33;;
7539;SDS011;3811;49.006;12.076;2022-10-31T05:55:18;68.07;;;8.77;;
7539;SDS011;3811;49.006;12.076;2022-10-31T05:58:17;33.30;;;7.43;;
7539;SDS011;3811;49.006;12.076;2022-10-31T06:00:51;77.83;;;9.07;;
7539;SDS011;3811;49.006;12.076;2022-10-31T06:03:19;46.37;;;7.33;;
7539;SDS011;3811;49.006;12.076;2022-10-31T06:05:49;37.63;;;7.23;;
7539;SDS011;3811;49.006;12.076;2022-10-31T06:08:16;12.27;;;5.40;;
7539;SDS011;3811;49.006;12.076;2022-10-31T06:10:45;35.97;;;6.90;;
7539;SDS011;3811;49.006;12.076;2022-10-31T06:13:15;68.63;;;9.73;;
7539;SDS011;3811;49.006;12.076;2022-10-31T06:15:45;24.43;;;6.00;;
7539;SDS011;3811;49.006;12.076;2022-10-31T06:18:11;11.57;;;5.00;;
7539;SDS011;3811;49.006;12.076;2022-10-31T06:20:47;19.23;;;5.37;;
7539;SDS011;3811;49.006;12.076;2022-10-31T06:23:15;12.57;;;4.80;;
7539;SDS011;3811;49.006;12.076;2022-10-31T06:25:43;6.30;;;4.70;;
7539;SDS011;3811;49.006;12.076;2022-10-31T06:28:16;15.00;;;5.50;;
7539;SDS011;3811;49.006;12.076;2022-10-31T06:30:58;23.10;;;6.37;;
7539;SDS011;3811;49.006;12.076;2022-10-31T06:33:26;19.80;;;5.27;;
7539;SDS011;3811;49.006;12.076;2022-10-31T06:36:04;11.33;;;4.90;;
7539;SDS011;3811;49.006;12.076;2022-10-31T06:38:31;16.37;;;4.90;;
7539;SDS011;3811;49.006;12.076;2022-10-31T06:41:02;9.53;;;4.30;;
7539;SDS011;3811;49.006;12.076;2022-10-31T06:43:38;21.30;;;5.83;;
7539;SDS011;3811;49.006;12.076;2022-10-31T06:46:18;21.83;;;5.57;;
7539;SDS011;3811;49.006;12.076;2022-10-31T06:49:18;25.80;;;5.50;;
7539;SDS011;3811;49.006;12.076;2022-10-31T06:51:49;11.90;;;5.57;;
7539;SDS011;3811;49.006;12.076;2022-10-31T06:54:17;30.80;;;6.87;;
7539;SDS011;3811;49.006;12.076;2022-10-31T06:56:48;17.33;;;5.97;;
7539;SDS011;3811;49.006;12.076;2022-10-31T06:59:15;7.50;;;5.00;;
7539;SDS011;3811;49.006;12.076;2022-10-31T07:02:05;19.07;;;5.90;;
7539;SDS011;3811;49.006;12.076;2022-10-31T07:04:32;37.17;;;8.20;;
7539;SDS011;3811;49.006;12.076;2022-10-31T07:07:00;19.60;;;8.13;;
7539;SDS011;3811;49.006;12.076;2022-10-31T07:09:28;9.43;;;6.77;;
7539;SDS011;3811;49.006;12.076;2022-10-31T07:11:59;14.30;;;5.93;;
7539;SDS011;3811;49.006;12.076;2022-10-31T07:14:28;7.83;;;4.90;;
7539;SDS011;3811;49.006;12.076;2022-10-31T07:16:55;13.63;;;6.53;;
7539;SDS011;3811;49.006;12.076;2022-10-31T07:19:32;33.83;;;7.07;;
7539;SDS011;3811;49.006;12.076;2022-10-31T07:21:59;24.87;;;8.37;;
7539;SDS011;3811;49.006;12.076;2022-10-31T07:24:28;25.33;;;7.23;;
7539;SDS011;3811;49.006;12.076;2022-10-31T07:27:15;11.77;;;6.23;;
7539;SDS011;3811;49.006;12.076;2022-10-31T07:29:44;8.60;;;5.27;;
7539;SDS011;3811;49.006;12.076;2022-10-31T07:32:11;11.93;;;5.77;;
7539;SDS011;3811;49.006;12.076;2022-10-31T07:34:45;18.93;;;6.07;;
7539;SDS011;3811;49.006;12.076;2022-10-31T07:37:22;6.87;;;5.93;;
7539;SDS011;3811;49.006;12.076;2022-10-31T07:39:54;12.57;;;5.90;;
7539;SDS011;3811;49.006;12.076;2022-10-31T07:42:23;9.53;;;5.67;;
7539;SDS011;3811;49.006;12.076;2022-10-31T07:44:50;7.20;;;5.77;;
7539;SDS011;3811;49.006;12.076;2022-10-31T07:47:39;21.87;;;5.63;;
7539;SDS011;3811;49.006;12.076;2022-10-31T07:50:07;11.47;;;6.10;;
7539;SDS011;3811;49.006;12.076;2022-10-31T07:52:59;16.13;;;5.77;;
7539;SDS011;3811;49.006;12.076;2022-10-31T07:55:48;20.00;;;7.10;;
7539;SDS011;3811;49.006;12.076;2022-10-31T07:58:18;9.67;;;5.43;;
7539;SDS011;3811;49.006;12.076;2022-10-31T08:00:46;20.37;;;6.80;;
7539;SDS011;3811;49.006;12.076;2022-10-31T08:03:21;13.37;;;7.33;;
7539;SDS011;3811;49.006;12.076;2022-10-31T08:06:07;16.37;;;6.30;;
7539;SDS011;3811;49.006;12.076;2022-10-31T08:09:09;8.70;;;6.10;;
7539;SDS011;3811;49.006;12.076;2022-10-31T08:11:37;6.10;;;5.50;;
7539;SDS011;3811;49.006;12.076;2022-10-31T08:14:07;8.10;;;6.00;;
7539;SDS011;3811;49.006;12.076;2022-10-31T08:16:34;16.80;;;11.73;;
7539;SDS011;3811;49.006;12.076;2022-10-31T08:19:03;10.00;;;7.63;;
7539;SDS011;3811;49.006;12.076;2022-10-31T08:21:35;9.27;;;7.00;;
7539;SDS011;3811;49.006;12.076;2022-10-31T08:24:04;7.87;;;6.07;;
7539;SDS011;3811;49.006;12.076;2022-10-31T08:26:33;12.13;;;6.03;;
7539;SDS011;3811;49.006;12.076;2022-10-31T08:29:01;28.13;;;7.23;;
7539;SDS011;3811;49.006;12.076;2022-10-31T08:31:33;12.83;;;6.30;;
7539;SDS011;3811;49.006;12.076;2022-10-31T08:34:20;7.07;;;6.03;;
7539;SDS011;3811;49.006;12.076;2022-10-31T08:37:06;7.30;;;5.30;;
7539;SDS011;3811;49.006;12.076;2022-10-31T08:39:44;6.93;;;6.10;;
7539;SDS011;3811;49.006;12.076;2022-10-31T08:42:11;14.60;;;5.83;;
7539;SDS011;3811;49.006;12.076;2022-10-31T08:44:38;6.43;;;5.80;;
7539;SDS011;3811;49.006;12.076;2022-10-31T08:47:06;12.60;;;6.40;;
7539;SDS011;3811;49.006;12.076;2022-10-31T08:49:34;7.03;;;6.33;;
7539;SDS011;3811;49.006;12.076;2022-10-31T08:52:01;27.33;;;6.93;;
7539;SDS011;3811;49.006;12.076;2022-10-31T08:54:33;10.33;;;6.83;;
7539;SDS011;3811;49.006;12.076;2022-10-31T08:57:23;20.47;;;8.20;;
7539;SDS011;3811;49.006;12.076;2022-10-31T08:59:51;7.97;;;6.97;;
7539;SDS011;3811;49.006;12.076;2022-10-31T09:02:36;9.83;;;7.37;;
7539;SDS011;3811;49.006;12.076;2022-10-31T09:05:04;10.03;;;6.83;;
7539;SDS011;3811;49.006;12.076;2022-10-31T09:07:33;9.17;;;8.10;;
7539;SDS011;3811;49.006;12.076;2022-10-31T09:10:00;8.50;;;7.43;;
7539;SDS011;3811;49.006;12.076;2022-10-31T09:12:31;10.33;;;7.87;;
7539;SDS011;3811;49.006;12.076;2022-10-31T09:15:16;12.07;;;7.07;;
7539;SDS011;3811;49.006;12.076;2022-10-31T09:17:53;8.73;;;6.90;;
7539;SDS011;3811;49.006;12.076;2022-10-31T09:20:37;7.27;;;6.57;;
7539;SDS011;3811;49.006;12.076;2022-10-31T09:23:06;9.13;;;7.30;;
7539;SDS011;3811;49.006;12.076;2022-10-31T09:25:38;8.47;;;7.47;;
7539;SDS011;3811;49.006;12.076;2022-10-31T09:28:25;8.43;;;7.57;;
7539;SDS011;3811;49.006;12.076;2022-10-31T09:30:53;8.43;;;7.60;;
7539;SDS011;3811;49.006;12.076;2022-10-31T09:33:42;8.43;;;6.90;;
7539;SDS011;3811;49.006;12.076;2022-10-31T09:36:27;7.97;;;7.03;;
7539;SDS011;3811;49.006;12.076;2022-10-31T09:38:55;8.83;;;7.63;;
7539;SDS011;3811;49.006;12.076;2022-10-31T09:41:23;20.77;;;8.13;;
7539;SDS011;3811;49.006;12.076;2022-10-31T09:43:58;11.00;;;8.07;;
7539;SDS011;3811;49.006;12.076;2022-10-31T09:46:33;11.90;;;8.07;;
7539;SDS011;3811;49.006;12.076;2022-10-31T09:49:22;10.50;;;7.90;;
7539;SDS011;3811;49.006;12.076;2022-10-31T09:51:57;15.20;;;7.43;;
7539;SDS011;3811;49.006;12.076;2022-10-31T09:54:31;9.97;;;7.60;;
7539;SDS011;3811;49.006;12.076;2022-10-31T09:57:01;8.27;;;7.53;;
7539;SDS011;3811;49.006;12.076;2022-10-31T09:59:31;10.60;;;7.80;;
7539;SDS011;3811;49.006;12.076;2022-10-31T10:02:02;13.03;;;7.80;;
7539;SDS011;3811;49.006;12.076;2022-10-31T10:04:34;22.37;;;7.97;;
7539;SDS011;3811;49.006;12.076;2022-10-31T10:07:22;21.50;;;8.13;;
7539;SDS011;3811;49.006;12.076;2022-10-31T10:10:38;10.07;;;8.47;;
7539;SDS011;3811;49.006;12.076;2022-10-31T10:13:22;11.93;;;8.37;;
7539;SDS011;3811;49.006;12.076;2022-10-31T10:16:05;10.50;;;8.03;;
7539;SDS011;3811;49.006;12.076;2022-10-31T10:18:43;12.60;;;8.77;;
7539;SDS011;3811;49.006;12.076;2022-10-31T10:21:24;10.43;;;9.27;;
7539;SDS011;3811;49.006;12.076;2022-10-31T10:24:02;9.47;;;8.33;;
7539;SDS011;3811;49.006;12.076;2022-10-31T10:26:40;11.13;;;9.13;;
7539;SDS011;3811;49.006;12.076;2022-10-31T10:29:16;12.40;;;8.97;;
7539;SDS011;3811;49.006;12.076;2022-10-31T10:31:53;11.03;;;9.07;;
7539;SDS011;3811;49.006;12.076;2022-10-31T10:34:24;12.70;;;9.67;;
7539;SDS011;3811;49.006;12.076;2022-10-31T10:36:58;12.07;;;9.53;;
7539;SDS011;3811;49.006;12.076;2022-10-31T10:39:29;12.40;;;11.07;;
7539;SDS011;3811;49.006;12.076;2022-10-31T10:42:00;17.83;;;12.60;;
7539;SDS011;3811;49.006;12.076;2022-10-31T10:44:46;16.23;;;13.77;;
7539;SDS011;3811;49.006;12.076;2022-10-31T10:47:35;17.77;;;12.63;;
7539;SDS011;3811;49.006;12.076;2022-10-31T10:50:09;16.03;;;12.10;;
7539;SDS011;3811;49.006;12.076;2022-10-31T10:52:43;17.33;;;12.37;;
7539;SDS011;3811;49.006;12.076;2022-10-31T10:55:22;17.93;;;12.70;;
7539;SDS011;3811;49.006;12.076;2022-10-31T10:57:58;16.53;;;12.80;;
7539;SDS011;3811;49.006;12.076;2022-10-31T11:00:27;14.83;;;11.80;;
7539;SDS011;3811;49.006;12.076;2022-10-31T11:02:57;17.50;;;13.30;;
7539;SDS011;3811;49.006;12.076;2022-10-31T11:05:25;17.73;;;12.83;;
7539;SDS011;3811;49.006;12.076;2022-10-31T11:08:00;19.23;;;13.57;;
7539;SDS011;3811;49.006;12.076;2022-10-31T11:10:27;17.30;;;14.33;;
7539;SDS011;3811;49.006;12.076;2022-10-31T11:12:59;18.30;;;13.93;;
7539;SDS011;3811;49.006;12.076;2022-10-31T11:15:31;16.50;;;12.80;;
7539;SDS011;3811;49.006;12.076;2022-10-31T11:18:00;17.50;;;12.93;;
7539;SDS011;3811;49.006;12.076;2022-10-31T11:20:29;19.67;;;14.23;;
7539;SDS011;3811;49.006;12.076;2022-10-31T11:23:16;16.40;;;13.23;;
7539;SDS011;3811;49.006;12.076;2022-10-31T11:25:48;17.50;;;13.27;;
7539;SDS011;3811;49.006;12.076;2022-10-31T11:28:21;18.57;;;14.00;;
7539;SDS011;3811;49.006;12.076;2022-10-31T11:30:49;16.67;;;13.07;;
7539;SDS011;3811;49.006;12.076;2022-10-31T11:33:19;16.43;;;13.53;;
7539;SDS011;3811;49.006;12.076;2022-10-31T11:35:51;18.50;;;14.33;;
7539;SDS011;3811;49.006;12.076;2022-10-31T11:38:22;17.67;;;13.97;;
7539;SDS011;3811;49.006;12.076;2022-10-31T11:40:51;17.30;;;13.27;;
7539;SDS011;3811;49.006;12.076;2022-10-31T11:43:20;17.17;;;13.53;;
7539;SDS011;3811;49.006;12.076;2022-10-31T11:45:48;18.20;;;14.50;;
7539;SDS011;3811;49.006;12.076;2022-10-31T11:48:16;19.10;;;14.00;;
7539;SDS011;3811;49.006;12.076;2022-10-31T11:50:47;17.87;;;13.73;;
7539;SDS011;3811;49.006;12.076;2022-10-31T11:53:16;16.77;;;13.60;;
7539;SDS011;3811;49.006;12.076;2022-10-31T11:55:46;17.97;;;13.97;;
7539;SDS011;3811;49.006;12.076;2022-10-31T11:58:21;16.87;;;13.40;;
7539;SDS011;3811;49.006;12.076;2022-10-31T12:00:50;14.97;;;13.23;;
7539;SDS011;3811;49.006;12.076;2022-10-31T12:03:24;16.77;;;13.00;;
7539;SDS011;3811;49.006;12.076;2022-10-31T12:06:01;16.60;;;13.40;;
7539;SDS011;3811;49.006;12.076;2022-10-31T12:08:31;16.13;;;13.23;;
7539;SDS011;3811;49.006;12.076;2022-10-31T12:11:03;15.43;;;12.70;;
7539;SDS011;3811;49.006;12.076;2022-10-31T12:13:38;18.90;;;12.73;;
7539;SDS011;3811;49.006;12.076;2022-10-31T12:16:12;18.90;;;13.93;;
7539;SDS011;3811;49.006;12.076;2022-10-31T12:18:48;17.17;;;13.97;;
7539;SDS011;3811;49.006;12.076;2022-10-31T12:21:33;18.23;;;13.33;;
7539;SDS011;3811;49.006;12.076;2022-10-31T12:24:12;19.63;;;13.40;;
7539;SDS011;3811;49.006;12.076;2022-10-31T12:26:51;17.00;;;12.87;;
7539;SDS011;3811;49.006;12.076;2022-10-31T12:29:30;15.80;;;12.47;;
7539;SDS011;3811;49.006;12.076;2022-10-31T12:37:56;17.40;;;13.57;;
7539;SDS011;3811;49.006;12.076;2022-10-31T12:40:39;18.13;;;14.53;;
7539;SDS011;3811;49.006;12.076;2022-10-31T12:43:23;17.73;;;14.33;;
7539;SDS011;3811;49.006;12.076;2022-10-31T12:46:00;16.73;;;14.27;;
7539;SDS011;3811;49.006;12.076;2022-10-31T12:48:38;16.73;;;14.53;;
7539;SDS011;3811;49.006;12.076;2022-10-31T12:51:23;19.47;;;14.90;;
7539;SDS011;3811;49.006;12.076;2022-10-31T12:54:04;17.57;;;14.50;;
7539;SDS011;3811;49.006;12.076;2022-10-31T12:56:59;22.33;;;14.73;;
7539;SDS011;3811;49.006;12.076;2022-10-31T12:59:35;17.43;;;14.80;;
7539;SDS011;3811;49.006;12.076;2022-10-31T13:02:09;19.87;;;14.37;;
7539;SDS011;3811;49.006;12.076;2022-10-31T13:04:43;17.80;;;14.80;;
7539;SDS011;3811;49.006;12.076;2022-10-31T13:07:16;20.70;;;14.87;;
7539;SDS011;3811;49.006;12.076;2022-10-31T13:09:50;18.07;;;14.53;;
7539;SDS011;3811;49.006;12.076;2022-10-31T13:12:23;16.20;;;14.47;;
7539;SDS011;3811;49.006;12.076;2022-10-31T13:14:53;19.63;;;14.60;;
7539;SDS011;3811;49.006;12.076;2022-10-31T13:17:25;22.93;;;15.33;;
7539;SDS011;3811;49.006;12.076;2022-10-31T13:19:58;20.73;;;14.93;;
7539;SDS011;3811;49.006;12.076;2022-10-31T13:22:39;19.60;;;15.37;;
7539;SDS011;3811;49.006;12.076;2022-10-31T13:25:10;20.20;;;15.27;;
7539;SDS011;3811;49.006;12.076;2022-10-31T13:27:43;22.80;;;15.33;;
7539;SDS011;3811;49.006;12.076;2022-10-31T13:30:16;18.43;;;14.70;;
7539;SDS011;3811;49.006;12.076;2022-10-31T13:32:46;21.03;;;15.23;;
7539;SDS011;3811;49.006;12.076;2022-10-31T13:35:19;20.00;;;14.83;;
7539;SDS011;3811;49.006;12.076;2022-10-31T13:37:53;18.90;;;15.97;;
7539;SDS011;3811;49.006;12.076;2022-10-31T13:40:33;22.40;;;15.77;;
7539;SDS011;3811;49.006;12.076;2022-10-31T13:43:06;21.07;;;16.00;;
7539;SDS011;3811;49.006;12.076;2022-10-31T13:45:49;22.40;;;15.73;;
7539;SDS011;3811;49.006;12.076;2022-10-31T13:48:19;17.80;;;14.30;;
7539;SDS011;3811;49.006;12.076;2022-10-31T13:51:01;19.43;;;15.17;;
7539;SDS011;3811;49.006;12.076;2022-10-31T13:56:24;19.90;;;14.77;;
7539;SDS011;3811;49.006;12.076;2022-10-31T13:59:00;17.53;;;15.47;;
7539;SDS011;3811;49.006;12.076;2022-10-31T14:01:31;19.80;;;14.27;;
7539;SDS011;3811;49.006;12.076;2022-10-31T14:04:01;27.40;;;17.17;;
7539;SDS011;3811;49.006;12.076;2022-10-31T14:06:34;20.50;;;15.50;;
7539;SDS011;3811;49.006;12.076;2022-10-31T14:09:27;19.77;;;16.40;;
7539;SDS011;3811;49.006;12.076;2022-10-31T14:11:58;20.13;;;14.93;;
7539;SDS011;3811;49.006;12.076;2022-10-31T14:14:30;19.93;;;15.53;;
7539;SDS011;3811;49.006;12.076;2022-10-31T14:17:02;21.90;;;16.60;;
7539;SDS011;3811;49.006;12.076;2022-10-31T14:19:29;20.93;;;14.83;;
7539;SDS011;3811;49.006;12.076;2022-10-31T14:21:57;17.27;;;14.40;;
7539;SDS011;3811;49.006;12.076;2022-10-31T14:24:34;20.53;;;15.37;;
7539;SDS011;3811;49.006;12.076;2022-10-31T14:27:04;18.80;;;14.73;;
7539;SDS011;3811;49.006;12.076;2022-10-31T14:29:46;21.10;;;15.17;;
7539;SDS011;3811;49.006;12.076;2022-10-31T14:32:18;26.07;;;16.30;;
7539;SDS011;3811;49.006;12.076;2022-10-31T14:34:52;21.33;;;14.60;;
7539;SDS011;3811;49.006;12.076;2022-10-31T14:37:33;19.80;;;13.50;;
7539;SDS011;3811;49.006;12.076;2022-10-31T14:40:24;19.60;;;15.27;;
7539;SDS011;3811;49.006;12.076;2022-10-31T14:45:47;16.87;;;14.40;;
7539;SDS011;3811;49.006;12.076;2022-10-31T14:48:33;22.97;;;15.27;;
7539;SDS011;3811;49.006;12.076;2022-10-31T14:51:19;18.10;;;13.87;;
7539;SDS011;3811;49.006;12.076;2022-10-31T14:53:48;16.87;;;13.87;;
7539;SDS011;3811;49.006;12.076;2022-10-31T14:56:19;17.83;;;14.90;;
7539;SDS011;3811;49.006;12.076;2022-10-31T14:58:50;19.57;;;15.77;;
7539;SDS011;3811;49.006;12.076;2022-10-31T15:01:20;19.03;;;14.80;;
7539;SDS011;3811;49.006;12.076;2022-10-31T15:03:52;19.90;;;16.17;;
7539;SDS011;3811;49.006;12.076;2022-10-31T15:06:21;21.73;;;15.90;;
7539;SDS011;3811;49.006;12.076;2022-10-31T15:08:51;16.43;;;14.17;;
7539;SDS011;3811;49.006;12.076;2022-10-31T15:11:20;21.60;;;14.70;;
7539;SDS011;3811;49.006;12.076;2022-10-31T15:13:49;20.80;;;15.53;;
7539;SDS011;3811;49.006;12.076;2022-10-31T15:16:17;19.20;;;15.50;;
7539;SDS011;3811;49.006;12.076;2022-10-31T15:18:48;20.13;;;15.47;;
7539;SDS011;3811;49.006;12.076;2022-10-31T15:21:23;20.70;;;15.40;;
7539;SDS011;3811;49.006;12.076;2022-10-31T15:23:54;18.40;;;14.70;;
7539;SDS011;3811;49.006;12.076;2022-10-31T15:26:22;23.07;;;15.63;;
7539;SDS011;3811;49.006;12.076;2022-10-31T15:29:01;21.20;;;15.67;;
7539;SDS011;3811;49.006;12.076;2022-10-31T15:31:30;23.97;;;16.60;;
7539;SDS011;3811;49.006;12.076;2022-10-31T15:34:00;23.07;;;17.60;;
7539;SDS011;3811;49.006;12.076;2022-10-31T15:36:29;21.30;;;15.73;;
7539;SDS011;3811;49.006;12.076;2022-10-31T15:38:57;19.40;;;15.87;;
7539;SDS011;3811;49.006;12.076;2022-10-31T15:41:27;21.70;;;15.30;;